createdAt,value
2023-02-22T00:01:35.464Z,85.33
2023-02-22T00:04:05.029Z,85.03
2023-02-22T00:06:31.960Z,85.37
2023-02-22T00:08:59.779Z,85.44
2023-02-22T00:11:26.216Z,85.58
2023-02-22T00:13:57.322Z,85.25
2023-02-22T00:16:25.384Z,85.50
2023-02-22T00:18:53.161Z,85.62
2023-02-22T00:21:20.496Z,85.32
2023-02-22T00:23:48.322Z,85.03
2023-02-22T00:26:21.012Z,85.37
2023-02-22T00:28:49.454Z,85.19
2023-02-22T00:31:16.616Z,85.17
2023-02-22T00:33:43.624Z,85.80
2023-02-22T00:36:12.058Z,86.22
2023-02-22T00:38:39.459Z,86.37
2023-02-22T00:41:05.916Z,86.48
2023-02-22T00:43:32.411Z,86.52
2023-02-22T00:45:58.984Z,86.51
2023-02-22T00:48:25.535Z,86.85
2023-02-22T00:50:55.191Z,86.13
2023-02-22T00:53:23.817Z,86.83
2023-02-22T00:55:50.531Z,86.40
2023-02-22T00:58:18.528Z,85.92
2023-02-22T01:00:45.800Z,86.05
2023-02-22T01:03:14.646Z,85.94
2023-02-22T01:05:41.127Z,85.99
2023-02-22T01:08:10.117Z,85.92
2023-02-22T01:10:38.693Z,85.87
2023-02-22T01:13:08.681Z,85.65
2023-02-22T01:15:37.794Z,86.44
2023-02-22T01:18:05.284Z,86.13
2023-02-22T01:20:33.434Z,85.75
2023-02-22T01:23:03.382Z,85.66
2023-02-22T01:25:31.469Z,85.55
2023-02-22T01:27:59.836Z,85.89
2023-02-22T01:30:29.277Z,85.14
2023-02-22T01:32:55.867Z,85.55
2023-02-22T01:35:30.931Z,85.27
2023-02-22T01:37:58.215Z,85.31
2023-02-22T01:40:30.200Z,85.19
2023-02-22T01:43:02.023Z,85.39
2023-02-22T01:45:32.560Z,85.43
2023-02-22T01:48:24.871Z,85.54
2023-02-22T01:51:00.207Z,85.88
2023-02-22T01:53:37.120Z,86.19
2023-02-22T01:56:04.793Z,86.51
2023-02-22T01:58:35.279Z,86.21
2023-02-22T02:01:02.083Z,86.24
2023-02-22T02:03:33.158Z,86.26
2023-02-22T02:06:02.610Z,85.99
2023-02-22T02:09:13.373Z,87.13
2023-02-22T02:11:41.784Z,86.69
2023-02-22T02:14:10.173Z,86.16
2023-02-22T02:16:43.584Z,86.13
2023-02-22T02:19:31.217Z,86.33
2023-02-22T02:22:00.945Z,86.44
2023-02-22T02:25:06.275Z,86.84
2023-02-22T02:28:02.603Z,86.38
2023-02-22T02:30:56.113Z,86.62
2023-02-22T02:33:26.650Z,86.61
2023-02-22T02:36:04.414Z,86.22
2023-02-22T02:38:39.926Z,86.13
2023-02-22T02:41:11.039Z,86.72
2023-02-22T02:44:02.602Z,86.60
2023-02-22T02:46:37.398Z,86.96
2023-02-22T02:49:07.224Z,86.55
2023-02-22T02:51:38.868Z,86.39
2023-02-22T02:54:07.412Z,86.29
2023-02-22T02:56:34.630Z,86.53
2023-02-22T02:59:01.079Z,86.46
2023-02-22T03:01:50.247Z,86.38
2023-02-22T03:04:20.382Z,86.03
2023-02-22T03:06:46.756Z,86.70
2023-02-22T03:09:26.093Z,86.98
2023-02-22T03:12:20.097Z,86.52
2023-02-22T03:15:02.079Z,86.07
2023-02-22T03:17:41.982Z,86.76
2023-02-22T03:20:38.500Z,85.84
2023-02-22T03:23:18.496Z,86.49
2023-02-22T03:25:51.120Z,86.27
2023-02-22T03:28:21.430Z,86.68
2023-02-22T03:30:53.249Z,86.31
2023-02-22T03:33:33.614Z,86.05
2023-02-22T03:36:07.672Z,86.48
2023-02-22T03:38:37.282Z,86.34
2023-02-22T03:41:06.695Z,86.14
2023-02-22T03:43:39.892Z,86.43
2023-02-22T03:46:09.911Z,86.20
2023-02-22T03:48:54.238Z,85.90
2023-02-22T03:51:21.530Z,86.01
2023-02-22T03:53:48.254Z,86.26
2023-02-22T03:56:22.713Z,86.44
2023-02-22T03:58:50.316Z,86.05
2023-02-22T04:01:17.724Z,86.93
2023-02-22T04:03:44.343Z,87.63
2023-02-22T04:06:11.259Z,87.87
2023-02-22T04:08:37.775Z,87.20
2023-02-22T04:11:04.244Z,87.55
2023-02-22T04:13:30.639Z,87.69
2023-02-22T04:15:57.052Z,87.89
2023-02-22T04:18:23.496Z,87.84
2023-02-22T04:20:49.908Z,87.24
2023-02-22T04:23:17.159Z,87.22
2023-02-22T04:25:43.699Z,87.33
2023-02-22T04:28:10.229Z,87.17
2023-02-22T04:30:36.702Z,87.33
2023-02-22T04:33:03.233Z,87.37
2023-02-22T04:35:29.642Z,87.27
2023-02-22T04:37:56.013Z,87.36
2023-02-22T04:40:22.439Z,87.65
2023-02-22T04:42:48.843Z,87.78
2023-02-22T04:45:15.599Z,87.82
2023-02-22T04:47:42.043Z,87.75
2023-02-22T04:50:11.339Z,88.07
2023-02-22T04:52:38.123Z,88.10
2023-02-22T04:55:05.136Z,88.58
2023-02-22T04:57:31.623Z,88.64
2023-02-22T04:59:58.341Z,88.95
2023-02-22T05:02:25.300Z,89.29
2023-02-22T05:04:51.802Z,89.15
2023-02-22T05:07:18.608Z,89.83
2023-02-22T05:09:44.982Z,89.12
2023-02-22T05:12:11.718Z,89.66
2023-02-22T05:14:38.180Z,90.48
2023-02-22T05:17:04.967Z,90.88
2023-02-22T05:19:31.364Z,91.66
2023-02-22T05:21:57.795Z,91.71
2023-02-22T05:24:24.706Z,92.25
2023-02-22T05:26:53.707Z,92.56
2023-02-22T05:29:21.015Z,93.61
2023-02-22T05:31:47.566Z,93.96
2023-02-22T05:34:14.858Z,95.93
2023-02-22T05:36:41.286Z,96.62
2023-02-22T05:39:08.062Z,96.84
2023-02-22T05:41:34.472Z,98.32
2023-02-22T05:44:02.928Z,99.04
2023-02-22T05:46:29.789Z,98.68
2023-02-22T05:48:56.544Z,98.50
2023-02-22T05:51:22.983Z,97.92
2023-02-22T05:53:52.070Z,99.20
2023-02-22T05:56:23.641Z,99.41
2023-02-22T05:58:50.051Z,100.00
2023-02-22T06:01:17.115Z,100.00
2023-02-22T06:03:47.603Z,100.00
2023-02-22T06:06:14.588Z,100.00
2023-02-22T06:08:41.317Z,100.00
2023-02-22T06:11:09.633Z,100.00
2023-02-22T06:13:36.861Z,100.00
2023-02-22T06:16:04.236Z,100.00
2023-02-22T06:18:31.262Z,100.00
2023-02-22T06:20:58.601Z,100.00
2023-02-22T06:23:26.621Z,100.00
2023-02-22T06:25:53.200Z,100.00
2023-02-22T06:28:20.110Z,100.00
2023-02-22T06:30:46.633Z,100.00
2023-02-22T06:33:13.683Z,100.00
2023-02-22T06:35:40.276Z,100.00
2023-02-22T06:38:07.826Z,100.00
2023-02-22T06:40:34.376Z,100.00
2023-02-22T06:43:00.867Z,100.00
2023-02-22T06:45:27.300Z,100.00
2023-02-22T06:47:54.380Z,100.00
2023-02-22T06:50:30.262Z,100.00
2023-02-22T06:52:57.600Z,100.00
2023-02-22T06:55:26.873Z,100.00
2023-02-22T06:57:53.563Z,100.00
2023-02-22T07:00:23.420Z,100.00
2023-02-22T07:02:50.037Z,100.00
2023-02-22T07:05:19.004Z,100.00
2023-02-22T07:07:45.950Z,100.00
2023-02-22T07:10:22.025Z,100.00
2023-02-22T07:12:49.096Z,100.00
2023-02-22T07:15:18.179Z,100.00
2023-02-22T07:17:44.943Z,100.00
2023-02-22T07:20:11.582Z,100.00
2023-02-22T07:22:39.008Z,100.00
2023-02-22T07:25:11.218Z,100.00
2023-02-22T07:27:39.328Z,100.00
2023-02-22T07:30:07.378Z,100.00
2023-02-22T07:32:33.976Z,100.00
2023-02-22T07:35:02.888Z,100.00
2023-02-22T07:37:29.916Z,100.00
2023-02-22T07:39:56.358Z,100.00
2023-02-22T07:42:22.758Z,100.00
2023-02-22T07:44:49.147Z,100.00
2023-02-22T07:47:15.809Z,100.00
2023-02-22T07:49:42.906Z,100.00
2023-02-22T07:52:09.277Z,100.00
2023-02-22T07:54:35.658Z,100.00
2023-02-22T07:57:03.335Z,100.00
2023-02-22T07:59:29.722Z,100.00
2023-02-22T08:01:56.091Z,100.00
2023-02-22T08:04:22.533Z,100.00
2023-02-22T08:06:50.177Z,100.00
2023-02-22T08:09:16.591Z,100.00
2023-02-22T08:11:42.998Z,100.00
2023-02-22T08:14:09.383Z,100.00
2023-02-22T08:16:35.816Z,100.00
2023-02-22T08:19:02.212Z,100.00
2023-02-22T08:21:28.592Z,100.00
2023-02-22T08:23:55.894Z,100.00
2023-02-22T08:26:23.670Z,100.00
2023-02-22T08:28:50.128Z,100.00
2023-02-22T08:31:16.957Z,100.00
2023-02-22T08:33:43.506Z,100.00
2023-02-22T08:36:10.498Z,100.00
2023-02-22T08:38:37.678Z,100.00
2023-02-22T08:41:04.456Z,100.00
2023-02-22T08:43:30.909Z,100.00
2023-02-22T08:45:58.384Z,100.00
2023-02-22T08:48:24.841Z,100.00
2023-02-22T08:50:51.349Z,100.00
2023-02-22T08:53:18.193Z,100.00
2023-02-22T08:55:45.354Z,100.00
2023-02-22T08:58:12.172Z,100.00
2023-02-22T09:00:40.711Z,100.00
2023-02-22T09:03:13.296Z,100.00
2023-02-22T09:05:40.660Z,100.00
2023-02-22T09:08:07.185Z,100.00
2023-02-22T09:10:34.735Z,100.00
2023-02-22T09:13:02.408Z,100.00
2023-02-22T09:15:29.869Z,100.00
2023-02-22T09:17:56.361Z,100.00
2023-02-22T09:20:24.557Z,100.00
2023-02-22T09:22:51.006Z,100.00
2023-02-22T09:25:20.500Z,100.00
2023-02-22T09:27:49.451Z,100.00
2023-02-22T09:30:18.436Z,100.00
2023-02-22T09:32:45.020Z,100.00
2023-02-22T09:35:12.962Z,100.00
2023-02-22T09:37:39.404Z,100.00
2023-02-22T09:40:09.809Z,100.00
2023-02-22T09:42:45.905Z,100.00
2023-02-22T09:45:20.149Z,100.00
2023-02-22T09:48:20.729Z,100.00
2023-02-22T09:50:52.537Z,100.00
2023-02-22T09:53:32.078Z,100.00
2023-02-22T09:56:11.202Z,100.00
2023-02-22T09:58:43.038Z,100.00
2023-02-22T10:01:23.240Z,100.00
2023-02-22T10:04:00.303Z,100.00
2023-02-22T10:06:27.076Z,100.00
2023-02-22T10:08:59.984Z,100.00
2023-02-22T10:11:40.924Z,100.00
2023-02-22T10:14:43.566Z,100.00
2023-02-22T10:17:39.822Z,100.00
2023-02-22T10:20:21.946Z,100.00
2023-02-22T10:23:03.104Z,100.00
2023-02-22T10:25:34.940Z,100.00
2023-02-22T10:28:19.640Z,100.00
2023-02-22T10:30:56.100Z,100.00
2023-02-22T10:33:52.661Z,100.00
2023-02-22T10:36:21.741Z,100.00
2023-02-22T10:39:34.756Z,100.00
2023-02-22T10:42:08.491Z,100.00
2023-02-22T10:44:36.496Z,100.00
2023-02-22T10:47:06.020Z,100.00
2023-02-22T10:49:42.436Z,100.00
2023-02-22T10:52:35.442Z,100.00
2023-02-22T10:55:14.639Z,100.00
2023-02-22T10:57:46.382Z,100.00
2023-02-22T11:00:29.469Z,100.00
2023-02-22T11:03:00.464Z,100.00
2023-02-22T11:05:29.474Z,100.00
2023-02-22T11:08:20.919Z,100.00
2023-02-22T11:11:00.477Z,100.00
2023-02-22T11:13:33.739Z,100.00
2023-02-22T11:16:32.342Z,100.00
2023-02-22T11:19:09.112Z,100.00
2023-02-22T11:21:35.582Z,100.00
2023-02-22T11:24:08.655Z,100.00
2023-02-22T11:26:44.868Z,100.00
2023-02-22T11:29:19.309Z,100.00
2023-02-22T11:31:49.174Z,100.00
2023-02-22T11:34:33.398Z,100.00
2023-02-22T11:37:33.462Z,100.00
2023-02-22T11:40:07.334Z,100.00
2023-02-22T11:42:33.909Z,100.00
2023-02-22T11:45:21.385Z,100.00
2023-02-22T11:48:04.857Z,100.00
2023-02-22T11:50:53.210Z,100.00
2023-02-22T11:53:47.522Z,100.00
2023-02-22T11:56:35.962Z,100.00
2023-02-22T11:59:17.056Z,100.00
2023-02-22T12:01:48.295Z,100.00
2023-02-22T12:04:52.617Z,100.00
2023-02-22T12:07:30.026Z,100.00
2023-02-22T12:10:20.330Z,100.00
2023-02-22T12:13:24.336Z,100.00
2023-02-22T12:15:59.379Z,100.00
2023-02-22T12:18:34.957Z,99.81
2023-02-22T12:21:16.688Z,99.01
2023-02-22T12:23:50.897Z,99.64
2023-02-22T12:26:36.813Z,98.48
2023-02-22T12:29:14.847Z,98.40
2023-02-22T12:31:50.369Z,97.12
2023-02-22T12:34:20.499Z,98.04
2023-02-22T12:36:51.757Z,93.86
2023-02-22T12:39:53.509Z,93.08
2023-02-22T12:42:46.921Z,92.76
2023-02-22T12:45:28.803Z,92.30
2023-02-22T12:48:07.223Z,91.95
2023-02-22T12:50:35.755Z,90.86
2023-02-22T12:53:14.500Z,91.17
2023-02-22T12:55:50.568Z,89.83
2023-02-22T12:58:25.933Z,89.79
2023-02-22T13:01:01.744Z,91.43
2023-02-22T13:03:40.183Z,92.42
2023-02-22T13:06:09.626Z,91.65
2023-02-22T13:08:56.245Z,90.87
2023-02-22T13:11:48.878Z,93.03
2023-02-22T13:14:38.601Z,93.28
2023-02-22T13:17:47.395Z,90.88
2023-02-22T13:20:20.076Z,89.96
2023-02-22T13:23:19.172Z,89.18
2023-02-22T13:25:55.180Z,89.96
2023-02-22T13:28:45.306Z,88.58
2023-02-22T13:31:41.073Z,87.26
2023-02-22T13:34:35.462Z,89.48
2023-02-22T13:37:23.848Z,88.58
2023-02-22T13:40:13.720Z,88.92
2023-02-22T13:42:57.984Z,87.14
2023-02-22T13:45:44.091Z,88.43
2023-02-22T13:48:38.844Z,87.18
2023-02-22T13:51:13.646Z,86.03
2023-02-22T13:53:48.895Z,86.51
2023-02-22T13:56:19.062Z,89.04
2023-02-22T13:58:55.311Z,87.80
2023-02-22T14:01:38.774Z,87.97
2023-02-22T14:04:40.287Z,88.30
2023-02-22T14:07:18.642Z,90.33
2023-02-22T14:09:49.294Z,89.46
2023-02-22T14:12:30.682Z,87.82
2023-02-22T14:15:28.253Z,84.82
2023-02-22T14:18:01.910Z,84.46
2023-02-22T14:20:37.412Z,85.78
2023-02-22T14:23:29.820Z,84.06
2023-02-22T14:26:08.992Z,85.53
2023-02-22T14:28:37.538Z,86.81
2023-02-22T14:31:17.441Z,85.09
2023-02-22T14:34:19.712Z,83.51
2023-02-22T14:37:05.557Z,83.34
2023-02-22T14:39:42.245Z,82.04
2023-02-22T14:42:13.944Z,82.21
2023-02-22T14:44:49.577Z,81.63
2023-02-22T14:47:20.987Z,82.21
2023-02-22T14:49:51.962Z,83.21
2023-02-22T14:52:26.756Z,84.49
2023-02-22T14:55:18.140Z,81.58
2023-02-22T14:58:10.621Z,80.19
2023-02-22T15:00:45.910Z,79.74
2023-02-22T15:03:18.176Z,79.49
2023-02-22T15:05:44.771Z,80.23
2023-02-22T15:08:15.483Z,80.17
2023-02-22T15:10:47.214Z,78.18
2023-02-22T15:13:15.152Z,79.56
2023-02-22T15:15:49.357Z,80.60
2023-02-22T15:18:22.120Z,79.58
2023-02-22T15:20:55.995Z,79.14
2023-02-22T15:23:26.513Z,78.52
2023-02-22T15:25:54.042Z,78.51
2023-02-22T15:28:30.817Z,79.02
2023-02-22T15:31:24.036Z,77.64
2023-02-22T15:33:55.289Z,79.89
2023-02-22T15:36:27.000Z,79.38
2023-02-22T15:38:57.529Z,80.01
2023-02-22T15:41:31.523Z,80.17
2023-02-22T15:44:22.727Z,79.52
2023-02-22T15:46:50.904Z,81.50
2023-02-22T15:49:20.757Z,82.02
2023-02-22T15:52:01.745Z,82.87
2023-02-22T15:54:28.391Z,81.82
2023-02-22T15:56:56.407Z,83.83
2023-02-22T15:59:29.576Z,84.13
2023-02-22T16:01:58.616Z,83.92
2023-02-22T16:04:29.773Z,84.86
2023-02-22T16:07:17.223Z,86.01
2023-02-22T16:09:49.784Z,85.95
2023-02-22T16:12:22.532Z,85.62
2023-02-22T16:14:49.996Z,85.65
2023-02-22T16:17:28.774Z,85.65
2023-02-22T16:19:55.236Z,86.53
2023-02-22T16:22:26.877Z,87.22
2023-02-22T16:24:54.539Z,87.14
2023-02-22T16:27:24.532Z,87.23
2023-02-22T16:30:24.905Z,88.62
2023-02-22T16:32:53.529Z,88.99
2023-02-22T16:35:20.217Z,89.40
2023-02-22T16:38:04.946Z,88.92
2023-02-22T16:40:34.904Z,89.16
2023-02-22T16:43:07.388Z,89.99
2023-02-22T16:45:34.317Z,89.31
2023-02-22T16:48:00.811Z,89.46
2023-02-22T16:50:27.194Z,89.03
2023-02-22T16:52:55.666Z,89.29
2023-02-22T16:55:22.374Z,89.16
2023-02-22T16:57:49.655Z,89.56
2023-02-22T17:00:31.442Z,89.75
2023-02-22T17:03:00.040Z,89.83
2023-02-22T17:05:26.538Z,89.81
2023-02-22T17:07:53.015Z,90.13
2023-02-22T17:10:19.631Z,89.99
2023-02-22T17:12:48.574Z,89.71
2023-02-22T17:15:22.266Z,89.92
2023-02-22T17:17:50.769Z,90.14
2023-02-22T17:20:29.826Z,90.06
2023-02-22T17:23:01.764Z,90.29
2023-02-22T17:25:36.618Z,90.22
2023-02-22T17:28:03.398Z,90.50
2023-02-22T17:30:31.259Z,90.65
2023-02-22T17:33:03.616Z,90.63
2023-02-22T17:35:37.107Z,90.98
2023-02-22T17:38:06.164Z,91.08
2023-02-22T17:40:38.352Z,90.80
2023-02-22T17:43:08.686Z,90.75
2023-02-22T17:45:38.828Z,91.25
2023-02-22T17:48:05.666Z,91.08
2023-02-22T17:50:32.094Z,91.53
2023-02-22T17:53:00.548Z,90.89
2023-02-22T17:55:27.918Z,90.44
2023-02-22T17:57:59.795Z,90.71
2023-02-22T18:00:35.138Z,91.21
2023-02-22T18:03:04.789Z,90.98
2023-02-22T18:05:33.069Z,90.87
2023-02-22T18:08:00.133Z,91.53
2023-02-22T18:10:27.465Z,92.21
2023-02-22T18:12:55.009Z,92.34
2023-02-22T18:15:21.602Z,92.78
2023-02-22T18:17:48.068Z,92.91
2023-02-22T18:20:16.413Z,93.21
2023-02-22T18:22:43.856Z,93.37
2023-02-22T18:25:14.035Z,93.49
2023-02-22T18:27:44.879Z,93.54
2023-02-22T18:30:12.353Z,93.69
2023-02-22T18:32:39.678Z,94.12
2023-02-22T18:35:07.186Z,94.35
2023-02-22T18:37:34.487Z,94.65
2023-02-22T18:40:00.991Z,94.74
2023-02-22T18:42:28.127Z,94.49
2023-02-22T18:45:00.560Z,94.30
2023-02-22T18:47:27.132Z,94.31
2023-02-22T18:49:53.539Z,94.57
2023-02-22T18:52:20.021Z,94.80
2023-02-22T18:54:47.197Z,94.87
2023-02-22T18:57:13.643Z,94.74
2023-02-22T18:59:41.042Z,94.71
2023-02-22T19:02:13.169Z,94.87
2023-02-22T19:04:39.858Z,94.59
2023-02-22T19:07:06.875Z,94.16
2023-02-22T19:09:33.239Z,94.75
2023-02-22T19:11:59.594Z,95.37
2023-02-22T19:14:26.356Z,96.20
2023-02-22T19:16:52.867Z,96.17
2023-02-22T19:19:25.420Z,96.69
2023-02-22T19:21:52.872Z,96.95
2023-02-22T19:24:19.447Z,96.97
2023-02-22T19:26:51.462Z,97.25
2023-02-22T19:29:19.386Z,97.43
2023-02-22T19:31:47.642Z,97.44
2023-02-22T19:34:15.401Z,97.40
2023-02-22T19:36:46.975Z,97.29
2023-02-22T19:39:15.028Z,97.52
2023-02-22T19:41:41.860Z,97.14
2023-02-22T19:44:08.661Z,97.02
2023-02-22T19:46:36.510Z,96.86
2023-02-22T19:49:03.795Z,96.66
2023-02-22T19:51:31.730Z,96.46
2023-02-22T19:54:02.380Z,96.11
2023-02-22T19:56:31.040Z,96.19
2023-02-22T19:59:00.765Z,96.20
2023-02-22T20:01:30.196Z,96.15
2023-02-22T20:04:00.040Z,96.30
2023-02-22T20:06:35.428Z,96.11
2023-02-22T20:09:02.996Z,96.19
2023-02-22T20:11:29.667Z,96.56
2023-02-22T20:13:56.099Z,96.86
2023-02-22T20:16:23.197Z,97.08
2023-02-22T20:18:50.254Z,97.08
2023-02-22T20:21:36.858Z,97.55
2023-02-22T20:24:08.844Z,97.33
2023-02-22T20:26:37.503Z,97.21
2023-02-22T20:29:05.538Z,97.25
2023-02-22T20:31:32.500Z,97.50
2023-02-22T20:34:00.550Z,97.37
2023-02-22T20:36:29.167Z,97.59
2023-02-22T20:38:58.495Z,97.65
2023-02-22T20:41:27.632Z,98.25
2023-02-22T20:43:55.470Z,97.80
2023-02-22T20:46:24.261Z,97.88
2023-02-22T20:48:55.299Z,98.39
2023-02-22T20:51:22.375Z,98.72
2023-02-22T20:53:49.022Z,98.55
2023-02-22T20:56:17.660Z,98.28
2023-02-22T20:58:44.162Z,98.06
2023-02-22T21:01:13.794Z,98.29
2023-02-22T21:03:44.428Z,98.15
2023-02-22T21:06:15.251Z,98.13
2023-02-22T21:08:45.728Z,97.47
2023-02-22T21:11:13.998Z,97.84
2023-02-22T21:13:41.465Z,97.49
2023-02-22T21:16:10.550Z,97.36
2023-02-22T21:18:37.162Z,97.73
2023-02-22T21:21:10.131Z,97.86
2023-02-22T21:23:37.775Z,98.49
2023-02-22T21:26:05.101Z,98.58
2023-02-22T21:28:50.410Z,98.91
2023-02-22T21:31:19.407Z,98.83
2023-02-22T21:33:50.366Z,98.29
2023-02-22T21:36:17.344Z,98.49
2023-02-22T21:38:46.591Z,98.76
2023-02-22T21:41:15.307Z,98.99
2023-02-22T21:43:42.921Z,98.53
2023-02-22T21:46:13.242Z,98.59
2023-02-22T21:48:44.982Z,98.19
2023-02-22T21:51:14.504Z,98.23
2023-02-22T21:53:49.361Z,98.07
2023-02-22T21:56:19.433Z,97.58
2023-02-22T21:58:47.074Z,97.69
2023-02-22T22:01:18.133Z,98.08
2023-02-22T22:03:46.031Z,98.38
2023-02-22T22:06:14.113Z,99.03
2023-02-22T22:08:42.135Z,99.32
2023-02-22T22:11:13.189Z,99.30
2023-02-22T22:13:41.498Z,99.40
2023-02-22T22:16:18.758Z,99.22
2023-02-22T22:18:46.772Z,98.83
2023-02-22T22:21:18.436Z,98.31
2023-02-22T22:23:47.164Z,98.38
2023-02-22T22:26:19.980Z,98.16
2023-02-22T22:28:51.961Z,98.17
2023-02-22T22:31:20.988Z,98.31
2023-02-22T22:33:48.029Z,98.16
2023-02-22T22:36:18.357Z,98.07
2023-02-22T22:38:48.250Z,97.72
2023-02-22T22:41:19.703Z,98.34
2023-02-22T22:43:47.142Z,98.66
2023-02-22T22:46:17.070Z,98.91
2023-02-22T22:48:46.695Z,98.74
2023-02-22T22:51:16.597Z,98.79
2023-02-22T22:53:45.223Z,99.26
2023-02-22T22:56:17.899Z,99.04
2023-02-22T22:58:49.975Z,99.15
2023-02-22T23:01:19.521Z,99.18
2023-02-22T23:03:56.348Z,98.96
2023-02-22T23:06:25.282Z,98.85
2023-02-22T23:09:12.324Z,98.64
2023-02-22T23:11:44.427Z,98.42
2023-02-22T23:14:19.381Z,98.25
2023-02-22T23:16:47.740Z,98.18
2023-02-22T23:19:15.707Z,98.34
2023-02-22T23:21:45.856Z,98.85
2023-02-22T23:24:17.272Z,99.58
2023-02-22T23:26:48.646Z,99.97
2023-02-22T23:29:20.455Z,99.14
2023-02-22T23:31:48.906Z,99.30
2023-02-22T23:34:21.284Z,99.41
2023-02-22T23:36:47.932Z,99.17
2023-02-22T23:39:17.265Z,99.19
2023-02-22T23:41:43.930Z,99.21
2023-02-22T23:44:13.872Z,98.77
2023-02-22T23:46:41.187Z,98.56
2023-02-22T23:49:10.159Z,98.24
2023-02-22T23:51:44.436Z,98.07
2023-02-22T23:54:13.896Z,97.83
2023-02-22T23:56:47.083Z,97.62
2023-02-22T23:59:14.436Z,97.42
